sensor_id;sensor_type;location;lat;lon;timestamp;pressure;altitude;pressure_sealevel;temperature;humidity
69173;BME280;56280;49.662;8.408;2022-12-24T00:00:30;100104.31;;;12.08;79.94
69173;BME280;56280;49.662;8.408;2022-12-24T00:02:55;100100.81;;;11.97;78.51
69173;BME280;56280;49.662;8.408;2022-12-24T00:05:20;100116.22;;;12.03;79.55
69173;BME280;56280;49.662;8.408;2022-12-24T00:07:45;100107.13;;;11.96;79.28
69173;BME280;56280;49.662;8.408;2022-12-24T00:10:11;100126.56;;;12.16;81.89
69173;BME280;56280;49.662;8.408;2022-12-24T00:12:36;100131.06;;;12.16;80.75
69173;BME280;56280;49.662;8.408;2022-12-24T00:15:03;100137.47;;;12.23;80.47
69173;BME280;56280;49.662;8.408;2022-12-24T00:17:29;100146.44;;;12.12;81.31
69173;BME280;56280;49.662;8.408;2022-12-24T00:19:54;100118.75;;;11.95;80.77
69173;BME280;56280;49.662;8.408;2022-12-24T00:22:19;100128.56;;;12.04;81.82
69173;BME280;56280;49.662;8.408;2022-12-24T00:24:44;100142.00;;;11.83;79.38
69173;BME280;56280;49.662;8.408;2022-12-24T00:27:10;100148.44;;;11.81;80.68
69173;BME280;56280;49.662;8.408;2022-12-24T00:29:35;100106.13;;;11.58;79.94
69173;BME280;56280;49.662;8.408;2022-12-24T00:32:00;100137.66;;;11.73;80.94
69173;BME280;56280;49.662;8.408;2022-12-24T00:34:26;100117.75;;;11.57;79.35
69173;BME280;56280;49.662;8.408;2022-12-24T00:36:51;100144.66;;;11.74;80.55
69173;BME280;56280;49.662;8.408;2022-12-24T00:39:17;100159.66;;;11.94;80.75
69173;BME280;56280;49.662;8.408;2022-12-24T00:41:42;100147.31;;;11.83;79.93
69173;BME280;56280;49.662;8.408;2022-12-24T00:44:08;100160.75;;;11.82;80.24
69173;BME280;56280;49.662;8.408;2022-12-24T00:46:36;100153.06;;;11.89;81.01
69173;BME280;56280;49.662;8.408;2022-12-24T00:49:02;100163.84;;;11.87;80.41
69173;BME280;56280;49.662;8.408;2022-12-24T00:51:28;100133.16;;;11.73;81.26
69173;BME280;56280;49.662;8.408;2022-12-24T00:53:54;100161.75;;;12.00;81.34
69173;BME280;56280;49.662;8.408;2022-12-24T00:56:20;100164.53;;;12.09;80.19
69173;BME280;56280;49.662;8.408;2022-12-24T00:58:45;100140.31;;;11.82;79.27
69173;BME280;56280;49.662;8.408;2022-12-24T01:01:11;100151.09;;;11.81;81.82
69173;BME280;56280;49.662;8.408;2022-12-24T01:03:36;100136.38;;;11.77;80.95
69173;BME280;56280;49.662;8.408;2022-12-24T01:06:07;100176.16;;;11.68;79.92
69173;BME280;56280;49.662;8.408;2022-12-24T01:08:34;100178.66;;;11.50;80.08
69173;BME280;56280;49.662;8.408;2022-12-24T01:11:00;100192.66;;;11.53;80.89
69173;BME280;56280;49.662;8.408;2022-12-24T01:13:26;100182.88;;;11.53;80.31
69173;BME280;56280;49.662;8.408;2022-12-24T01:15:51;100176.09;;;11.29;79.36
69173;BME280;56280;49.662;8.408;2022-12-24T01:18:17;100178.34;;;11.24;79.21
69173;BME280;56280;49.662;8.408;2022-12-24T01:20:42;100191.50;;;11.26;79.81
69173;BME280;56280;49.662;8.408;2022-12-24T01:23:08;100193.47;;;11.24;79.53
69173;BME280;56280;49.662;8.408;2022-12-24T01:25:33;100174.25;;;11.20;78.94
69173;BME280;56280;49.662;8.408;2022-12-24T01:27:58;100180.53;;;11.09;78.49
69173;BME280;56280;49.662;8.408;2022-12-24T01:30:24;100185.59;;;11.12;78.62
69173;BME280;56280;49.662;8.408;2022-12-24T01:32:49;100210.66;;;11.29;78.62
69173;BME280;56280;49.662;8.408;2022-12-24T01:35:14;100232.69;;;11.01;78.82
69173;BME280;56280;49.662;8.408;2022-12-24T01:37:41;100237.09;;;11.21;78.15
69173;BME280;56280;49.662;8.408;2022-12-24T01:40:09;100245.91;;;11.22;77.15
69173;BME280;56280;49.662;8.408;2022-12-24T01:42:56;100213.81;;;11.04;78.29
69173;BME280;56280;49.662;8.408;2022-12-24T01:45:42;100248.53;;;11.12;78.38
69173;BME280;56280;49.662;8.408;2022-12-24T01:48:15;100261.00;;;11.11;77.63
69173;BME280;56280;49.662;8.408;2022-12-24T01:50:43;100234.63;;;10.68;78.11
69173;BME280;56280;49.662;8.408;2022-12-24T01:53:09;100218.13;;;10.64;79.98
69173;BME280;56280;49.662;8.408;2022-12-24T01:55:35;100266.47;;;10.89;78.98
69173;BME280;56280;49.662;8.408;2022-12-24T01:58:02;100274.16;;;11.13;78.78
69173;BME280;56280;49.662;8.408;2022-12-24T02:00:28;100249.06;;;10.75;77.95
69173;BME280;56280;49.662;8.408;2022-12-24T02:02:54;100258.38;;;10.90;78.92
69173;BME280;56280;49.662;8.408;2022-12-24T02:05:45;100279.72;;;11.10;77.73
69173;BME280;56280;49.662;8.408;2022-12-24T02:08:11;100284.34;;;11.08;77.62
69173;BME280;56280;49.662;8.408;2022-12-24T02:10:37;100246.06;;;10.89;78.20
69173;BME280;56280;49.662;8.408;2022-12-24T02:13:03;100285.84;;;11.01;78.72
69173;BME280;56280;49.662;8.408;2022-12-24T02:22:06;100285.88;;;11.10;78.66
69173;BME280;56280;49.662;8.408;2022-12-24T02:27:37;100258.06;;;11.15;78.43
69173;BME280;56280;49.662;8.408;2022-12-24T02:30:22;100284.25;;;11.19;78.45
69173;BME280;56280;49.662;8.408;2022-12-24T02:35:37;100260.28;;;11.09;79.17
69173;BME280;56280;49.662;8.408;2022-12-24T02:38:18;100279.22;;;11.16;78.48
69173;BME280;56280;49.662;8.408;2022-12-24T02:40:53;100277.75;;;11.43;77.98
69173;BME280;56280;49.662;8.408;2022-12-24T02:43:23;100286.00;;;11.40;78.87
69173;BME280;56280;49.662;8.408;2022-12-24T02:45:57;100289.75;;;11.27;78.30
69173;BME280;56280;49.662;8.408;2022-12-24T02:48:23;100279.84;;;11.39;78.66
69173;BME280;56280;49.662;8.408;2022-12-24T02:50:54;100248.59;;;11.31;78.08
69173;BME280;56280;49.662;8.408;2022-12-24T02:53:20;100290.97;;;11.23;79.40
69173;BME280;56280;49.662;8.408;2022-12-24T03:01:39;100263.34;;;11.05;80.26
69173;BME280;56280;49.662;8.408;2022-12-24T03:04:29;100284.00;;;11.22;80.02
69173;BME280;56280;49.662;8.408;2022-12-24T03:07:44;100302.59;;;11.53;78.23
69173;BME280;56280;49.662;8.408;2022-12-24T03:10:20;100294.97;;;11.39;78.87
69173;BME280;56280;49.662;8.408;2022-12-24T03:12:53;100310.22;;;11.37;79.33
69173;BME280;56280;49.662;8.408;2022-12-24T03:15:22;100289.31;;;11.22;79.14
69173;BME280;56280;49.662;8.408;2022-12-24T03:17:51;100327.91;;;11.47;78.81
69173;BME280;56280;49.662;8.408;2022-12-24T03:20:22;100309.59;;;11.23;78.66
69173;BME280;56280;49.662;8.408;2022-12-24T03:22:49;100324.00;;;11.21;79.28
69173;BME280;56280;49.662;8.408;2022-12-24T03:25:15;100319.69;;;11.29;78.68
69173;BME280;56280;49.662;8.408;2022-12-24T03:27:41;100331.09;;;11.41;78.73
69173;BME280;56280;49.662;8.408;2022-12-24T03:30:09;100318.31;;;11.25;79.05
69173;BME280;56280;49.662;8.408;2022-12-24T03:32:37;100339.44;;;11.06;80.46
69173;BME280;56280;49.662;8.408;2022-12-24T03:35:03;100356.50;;;11.24;80.62
69173;BME280;56280;49.662;8.408;2022-12-24T03:37:28;100304.00;;;10.95;80.41
69173;BME280;56280;49.662;8.408;2022-12-24T03:39:53;100346.56;;;11.26;80.46
69173;BME280;56280;49.662;8.408;2022-12-24T03:42:19;100354.22;;;11.20;80.70
69173;BME280;56280;49.662;8.408;2022-12-24T03:44:44;100351.94;;;11.36;80.78
69173;BME280;56280;49.662;8.408;2022-12-24T03:47:09;100309.16;;;11.18;80.66
69173;BME280;56280;49.662;8.408;2022-12-24T03:49:35;100319.59;;;11.41;79.95
69173;BME280;56280;49.662;8.408;2022-12-24T03:52:00;100317.19;;;11.28;79.43
69173;BME280;56280;49.662;8.408;2022-12-24T03:54:25;100333.78;;;11.51;80.32
69173;BME280;56280;49.662;8.408;2022-12-24T03:56:50;100324.09;;;11.40;80.20
69173;BME280;56280;49.662;8.408;2022-12-24T03:59:16;100345.44;;;11.60;79.39
69173;BME280;56280;49.662;8.408;2022-12-24T04:01:41;100359.28;;;11.54;80.80
69173;BME280;56280;49.662;8.408;2022-12-24T04:04:06;100361.84;;;11.65;80.43
69173;BME280;56280;49.662;8.408;2022-12-24T04:06:32;100339.84;;;11.22;80.38
69173;BME280;56280;49.662;8.408;2022-12-24T04:08:57;100310.94;;;11.08;81.81
69173;BME280;56280;49.662;8.408;2022-12-24T04:11:30;100376.44;;;11.71;80.44
69173;BME280;56280;49.662;8.408;2022-12-24T04:13:55;100369.06;;;11.84;80.12
69173;BME280;56280;49.662;8.408;2022-12-24T04:16:20;100362.16;;;11.72;80.09
69173;BME280;56280;49.662;8.408;2022-12-24T04:18:45;100369.88;;;11.75;80.95
69173;BME280;56280;49.662;8.408;2022-12-24T04:21:11;100336.03;;;11.56;80.58
69173;BME280;56280;49.662;8.408;2022-12-24T04:23:38;100381.38;;;11.75;81.58
69173;BME280;56280;49.662;8.408;2022-12-24T04:26:05;100384.72;;;11.77;80.85
69173;BME280;56280;49.662;8.408;2022-12-24T04:28:32;100384.34;;;11.82;80.93
69173;BME280;56280;49.662;8.408;2022-12-24T04:31:17;100376.69;;;11.58;80.83
69173;BME280;56280;49.662;8.408;2022-12-24T04:33:43;100378.00;;;11.83;80.79
69173;BME280;56280;49.662;8.408;2022-12-24T04:36:12;100345.34;;;11.71;80.10
69173;BME280;56280;49.662;8.408;2022-12-24T04:38:38;100375.63;;;11.80;80.27
69173;BME280;56280;49.662;8.408;2022-12-24T04:41:10;100383.75;;;11.78;80.35
69173;BME280;56280;49.662;8.408;2022-12-24T04:43:36;100391.41;;;11.72;80.87
69173;BME280;56280;49.662;8.408;2022-12-24T04:46:08;100388.75;;;11.72;81.36
69173;BME280;56280;49.662;8.408;2022-12-24T04:48:35;100401.38;;;11.70;80.66
69173;BME280;56280;49.662;8.408;2022-12-24T04:51:01;100284.50;;;10.85;81.19
69173;BME280;56280;49.662;8.408;2022-12-24T04:53:27;100377.34;;;11.50;81.69
69173;BME280;56280;49.662;8.408;2022-12-24T04:55:53;100401.09;;;11.73;80.56
69173;BME280;56280;49.662;8.408;2022-12-24T04:58:18;100360.59;;;11.59;81.15
69173;BME280;56280;49.662;8.408;2022-12-24T05:00:43;100362.91;;;11.53;80.59
69173;BME280;56280;49.662;8.408;2022-12-24T05:03:08;100376.16;;;11.43;81.36
69173;BME280;56280;49.662;8.408;2022-12-24T05:05:34;100337.59;;;10.97;82.38
69173;BME280;56280;49.662;8.408;2022-12-24T05:07:59;100358.09;;;11.37;82.39
69173;BME280;56280;49.662;8.408;2022-12-24T05:10:24;100343.06;;;11.26;82.39
69173;BME280;56280;49.662;8.408;2022-12-24T05:12:49;100342.75;;;11.19;81.38
69173;BME280;56280;49.662;8.408;2022-12-24T05:15:15;100367.06;;;11.36;82.42
69173;BME280;56280;49.662;8.408;2022-12-24T05:17:40;100335.88;;;11.17;81.34
69173;BME280;56280;49.662;8.408;2022-12-24T05:20:06;100366.34;;;11.34;82.60
69173;BME280;56280;49.662;8.408;2022-12-24T05:22:31;100381.78;;;11.19;83.08
69173;BME280;56280;49.662;8.408;2022-12-24T05:25:15;100386.41;;;10.95;83.44
69173;BME280;56280;49.662;8.408;2022-12-24T05:27:59;100348.03;;;10.88;83.30
69173;BME280;56280;49.662;8.408;2022-12-24T05:30:24;100370.31;;;11.18;82.26
69173;BME280;56280;49.662;8.408;2022-12-24T05:32:49;100367.25;;;11.23;82.83
69173;BME280;56280;49.662;8.408;2022-12-24T05:35:15;100350.72;;;11.19;82.76
69173;BME280;56280;49.662;8.408;2022-12-24T05:37:40;100324.19;;;10.77;82.58
69173;BME280;56280;49.662;8.408;2022-12-24T05:40:06;100372.28;;;11.16;82.30
69173;BME280;56280;49.662;8.408;2022-12-24T05:42:31;100361.38;;;11.19;81.44
69173;BME280;56280;49.662;8.408;2022-12-24T05:44:57;100404.03;;;11.39;82.44
69173;BME280;56280;49.662;8.408;2022-12-24T05:47:22;100331.63;;;10.83;82.04
69173;BME280;56280;49.662;8.408;2022-12-24T05:49:47;100363.81;;;11.32;82.36
69173;BME280;56280;49.662;8.408;2022-12-24T05:52:12;100389.34;;;11.44;81.40
69173;BME280;56280;49.662;8.408;2022-12-24T05:54:38;100374.84;;;11.27;82.24
69173;BME280;56280;49.662;8.408;2022-12-24T05:57:03;100398.06;;;11.25;82.81
69173;BME280;56280;49.662;8.408;2022-12-24T05:59:28;100381.09;;;10.95;83.38
69173;BME280;56280;49.662;8.408;2022-12-24T06:01:53;100399.69;;;11.17;83.20
69173;BME280;56280;49.662;8.408;2022-12-24T06:04:19;100404.25;;;11.05;83.06
69173;BME280;56280;49.662;8.408;2022-12-24T06:06:44;100368.69;;;11.06;82.91
69173;BME280;56280;49.662;8.408;2022-12-24T06:09:09;100384.84;;;11.14;82.96
69173;BME280;56280;49.662;8.408;2022-12-24T06:11:34;100395.81;;;11.00;83.38
69173;BME280;56280;49.662;8.408;2022-12-24T06:14:00;100380.50;;;10.92;83.23
69173;BME280;56280;49.662;8.408;2022-12-24T06:16:25;100412.78;;;11.29;82.82
69173;BME280;56280;49.662;8.408;2022-12-24T06:18:51;100416.75;;;11.14;82.40
69173;BME280;56280;49.662;8.408;2022-12-24T06:21:16;100369.34;;;10.77;83.14
69173;BME280;56280;49.662;8.408;2022-12-24T06:23:43;100427.84;;;11.19;83.09
69173;BME280;56280;49.662;8.408;2022-12-24T06:26:11;100411.16;;;10.96;83.14
69173;BME280;56280;49.662;8.408;2022-12-24T06:28:37;100424.69;;;10.93;84.00
69173;BME280;56280;49.662;8.408;2022-12-24T06:31:04;100370.13;;;10.68;83.11
69173;BME280;56280;49.662;8.408;2022-12-24T06:33:31;100408.16;;;10.89;82.58
69173;BME280;56280;49.662;8.408;2022-12-24T06:35:56;100407.78;;;10.73;83.92
69173;BME280;56280;49.662;8.408;2022-12-24T06:38:22;100401.56;;;10.84;82.43
69173;BME280;56280;49.662;8.408;2022-12-24T06:40:47;100411.72;;;10.79;82.55
69173;BME280;56280;49.662;8.408;2022-12-24T06:43:13;100434.31;;;11.05;82.51
69173;BME280;56280;49.662;8.408;2022-12-24T06:45:39;100441.25;;;10.97;82.42
69173;BME280;56280;49.662;8.408;2022-12-24T06:48:08;100449.22;;;10.97;82.76
69173;BME280;56280;49.662;8.408;2022-12-24T06:50:33;100433.22;;;11.08;82.54
69173;BME280;56280;49.662;8.408;2022-12-24T06:52:58;100415.44;;;10.87;81.86
69173;BME280;56280;49.662;8.408;2022-12-24T06:55:24;100450.25;;;11.05;82.13
69173;BME280;56280;49.662;8.408;2022-12-24T06:57:49;100424.28;;;10.76;82.56
69173;BME280;56280;49.662;8.408;2022-12-24T07:00:15;100458.38;;;11.04;83.28
69173;BME280;56280;49.662;8.408;2022-12-24T07:02:41;100436.41;;;11.02;82.33
69173;BME280;56280;49.662;8.408;2022-12-24T07:05:08;100463.19;;;11.10;82.57
69173;BME280;56280;49.662;8.408;2022-12-24T07:07:38;100458.38;;;11.25;82.00
69173;BME280;56280;49.662;8.408;2022-12-24T07:10:04;100466.47;;;11.23;82.00
69173;BME280;56280;49.662;8.408;2022-12-24T07:12:30;100468.88;;;11.05;82.36
69173;BME280;56280;49.662;8.408;2022-12-24T07:14:55;100455.25;;;10.99;82.42
69173;BME280;56280;49.662;8.408;2022-12-24T07:17:21;100457.78;;;11.00;82.45
69173;BME280;56280;49.662;8.408;2022-12-24T07:19:46;100451.75;;;10.98;82.34
69173;BME280;56280;49.662;8.408;2022-12-24T07:22:11;100449.75;;;10.90;82.63
69173;BME280;56280;49.662;8.408;2022-12-24T07:24:37;100448.66;;;10.82;82.98
69173;BME280;56280;49.662;8.408;2022-12-24T07:27:02;100475.97;;;11.16;82.38
69173;BME280;56280;49.662;8.408;2022-12-24T07:29:27;100469.47;;;11.09;82.71
69173;BME280;56280;49.662;8.408;2022-12-24T07:31:52;100483.69;;;11.19;82.47
69173;BME280;56280;49.662;8.408;2022-12-24T07:34:18;100479.53;;;11.26;81.48
69173;BME280;56280;49.662;8.408;2022-12-24T07:36:43;100486.22;;;11.42;81.99
69173;BME280;56280;49.662;8.408;2022-12-24T07:39:08;100457.41;;;11.26;82.07
69173;BME280;56280;49.662;8.408;2022-12-24T07:41:34;100480.59;;;11.03;82.95
69173;BME280;56280;49.662;8.408;2022-12-24T07:43:59;100473.16;;;10.64;83.32
69173;BME280;56280;49.662;8.408;2022-12-24T07:46:24;100472.16;;;10.98;83.25
69173;BME280;56280;49.662;8.408;2022-12-24T07:48:49;100480.97;;;11.30;82.07
69173;BME280;56280;49.662;8.408;2022-12-24T07:51:15;100499.72;;;11.29;81.91
69173;BME280;56280;49.662;8.408;2022-12-24T07:53:40;100491.84;;;11.27;82.52
69173;BME280;56280;49.662;8.408;2022-12-24T07:56:12;100481.03;;;11.19;81.79
69173;BME280;56280;49.662;8.408;2022-12-24T07:58:37;100498.72;;;11.30;81.58
69173;BME280;56280;49.662;8.408;2022-12-24T08:01:03;100521.03;;;11.18;81.63
69173;BME280;56280;49.662;8.408;2022-12-24T08:03:28;100481.22;;;11.06;81.85
69173;BME280;56280;49.662;8.408;2022-12-24T08:05:53;100474.66;;;10.78;82.36
69173;BME280;56280;49.662;8.408;2022-12-24T08:08:18;100524.31;;;11.10;82.20
69173;BME280;56280;49.662;8.408;2022-12-24T08:10:44;100503.44;;;11.05;82.21
69173;BME280;56280;49.662;8.408;2022-12-24T08:13:10;100523.19;;;11.24;81.91
69173;BME280;56280;49.662;8.408;2022-12-24T08:15:35;100495.63;;;10.92;83.14
69173;BME280;56280;49.662;8.408;2022-12-24T08:18:01;100522.88;;;11.06;82.51
69173;BME280;56280;49.662;8.408;2022-12-24T08:20:26;100486.50;;;10.85;83.35
69173;BME280;56280;49.662;8.408;2022-12-24T08:22:52;100428.88;;;10.42;83.49
69173;BME280;56280;49.662;8.408;2022-12-24T08:25:17;100515.78;;;11.27;82.42
69173;BME280;56280;49.662;8.408;2022-12-24T08:27:42;100538.84;;;11.38;82.35
69173;BME280;56280;49.662;8.408;2022-12-24T08:30:08;100517.03;;;11.44;81.77
69173;BME280;56280;49.662;8.408;2022-12-24T08:32:34;100492.94;;;11.25;80.99
69173;BME280;56280;49.662;8.408;2022-12-24T08:34:59;100520.69;;;11.43;81.42
69173;BME280;56280;49.662;8.408;2022-12-24T08:37:24;100516.50;;;11.72;80.02
69173;BME280;56280;49.662;8.408;2022-12-24T08:39:50;100505.34;;;11.78;79.19
69173;BME280;56280;49.662;8.408;2022-12-24T08:42:15;100519.59;;;11.77;79.04
69173;BME280;56280;49.662;8.408;2022-12-24T08:44:40;100511.50;;;11.78;79.50
69173;BME280;56280;49.662;8.408;2022-12-24T08:47:06;100541.13;;;12.06;78.96
69173;BME280;56280;49.662;8.408;2022-12-24T08:49:31;100500.34;;;11.63;79.00
69173;BME280;56280;49.662;8.408;2022-12-24T08:51:56;100527.97;;;12.14;78.89
69173;BME280;56280;49.662;8.408;2022-12-24T08:54:22;100538.53;;;12.26;78.51
69173;BME280;56280;49.662;8.408;2022-12-24T08:56:49;100522.34;;;11.86;78.71
69173;BME280;56280;49.662;8.408;2022-12-24T08:59:14;100527.81;;;12.06;79.01
69173;BME280;56280;49.662;8.408;2022-12-24T09:01:39;100469.81;;;11.89;78.25
69173;BME280;56280;49.662;8.408;2022-12-24T09:04:04;100533.13;;;12.47;77.99
69173;BME280;56280;49.662;8.408;2022-12-24T09:06:31;100530.16;;;13.20;75.88
69173;BME280;56280;49.662;8.408;2022-12-24T09:08:57;100501.78;;;12.80;75.65
69173;BME280;56280;49.662;8.408;2022-12-24T09:11:22;100502.91;;;12.77;76.13
69173;BME280;56280;49.662;8.408;2022-12-24T09:13:47;100546.09;;;12.61;77.08
69173;BME280;56280;49.662;8.408;2022-12-24T09:16:13;100537.31;;;12.39;77.29
69173;BME280;56280;49.662;8.408;2022-12-24T09:18:38;100543.31;;;12.72;77.32
69173;BME280;56280;49.662;8.408;2022-12-24T09:21:07;100585.72;;;12.85;76.65
69173;BME280;56280;49.662;8.408;2022-12-24T09:23:36;100579.84;;;12.91;77.14
69173;BME280;56280;49.662;8.408;2022-12-24T09:26:13;100584.06;;;13.13;76.90
69173;BME280;56280;49.662;8.408;2022-12-24T09:28:39;100589.91;;;12.88;76.45
69173;BME280;56280;49.662;8.408;2022-12-24T09:31:05;100596.72;;;13.21;76.01
69173;BME280;56280;49.662;8.408;2022-12-24T09:33:33;100598.13;;;13.16;75.17
69173;BME280;56280;49.662;8.408;2022-12-24T09:35:59;100604.69;;;13.02;75.80
69173;BME280;56280;49.662;8.408;2022-12-24T09:38:24;100592.75;;;12.96;75.98
69173;BME280;56280;49.662;8.408;2022-12-24T09:40:50;100611.88;;;13.21;75.09
69173;BME280;56280;49.662;8.408;2022-12-24T09:43:18;100610.47;;;13.17;76.54
69173;BME280;56280;49.662;8.408;2022-12-24T09:45:50;100619.59;;;13.14;76.33
69173;BME280;56280;49.662;8.408;2022-12-24T09:48:23;100621.97;;;13.07;75.59
69173;BME280;56280;49.662;8.408;2022-12-24T09:56:24;100602.28;;;12.99;75.44
69173;BME280;56280;49.662;8.408;2022-12-24T09:58:58;100612.84;;;13.20;74.69
69173;BME280;56280;49.662;8.408;2022-12-24T10:01:23;100622.56;;;13.21;74.54
69173;BME280;56280;49.662;8.408;2022-12-24T10:03:49;100631.09;;;13.14;74.42
69173;BME280;56280;49.662;8.408;2022-12-24T10:06:23;100633.78;;;13.24;75.38
69173;BME280;56280;49.662;8.408;2022-12-24T10:09:10;100658.84;;;13.53;74.76
69173;BME280;56280;49.662;8.408;2022-12-24T10:11:55;100651.53;;;13.45;74.37
69173;BME280;56280;49.662;8.408;2022-12-24T10:23:01;100651.53;;;13.55;73.97
69173;BME280;56280;49.662;8.408;2022-12-24T10:28:33;100652.63;;;13.32;72.94
69173;BME280;56280;49.662;8.408;2022-12-24T10:31:02;100644.44;;;13.14;74.14
69173;BME280;56280;49.662;8.408;2022-12-24T10:33:40;100656.09;;;13.23;74.55
69173;BME280;56280;49.662;8.408;2022-12-24T10:36:12;100655.13;;;13.24;74.55
69173;BME280;56280;49.662;8.408;2022-12-24T10:38:39;100647.03;;;13.45;73.09
69173;BME280;56280;49.662;8.408;2022-12-24T10:41:04;100656.31;;;13.51;72.75
69173;BME280;56280;49.662;8.408;2022-12-24T10:43:30;100646.34;;;13.53;73.16
69173;BME280;56280;49.662;8.408;2022-12-24T10:45:59;100658.00;;;13.42;73.29
69173;BME280;56280;49.662;8.408;2022-12-24T10:48:28;100658.00;;;13.52;73.49
69173;BME280;56280;49.662;8.408;2022-12-24T10:51:52;100662.22;;;13.64;72.66
69173;BME280;56280;49.662;8.408;2022-12-24T10:53:56;100657.56;;;13.37;73.24
69173;BME280;56280;49.662;8.408;2022-12-24T10:56:24;100680.63;;;13.38;72.96
69173;BME280;56280;49.662;8.408;2022-12-24T10:58:52;100632.50;;;13.09;73.59
69173;BME280;56280;49.662;8.408;2022-12-24T11:01:18;100670.91;;;13.37;72.98
69173;BME280;56280;49.662;8.408;2022-12-24T11:03:44;100668.50;;;13.34;73.98
69173;BME280;56280;49.662;8.408;2022-12-24T11:06:12;100673.59;;;13.47;73.83
69173;BME280;56280;49.662;8.408;2022-12-24T11:08:42;100677.56;;;13.72;72.22
69173;BME280;56280;49.662;8.408;2022-12-24T11:11:19;100662.22;;;13.64;72.76
69173;BME280;56280;49.662;8.408;2022-12-24T11:13:52;100640.16;;;13.72;71.45
69173;BME280;56280;49.662;8.408;2022-12-24T11:16:31;100671.06;;;13.84;71.96
69173;BME280;56280;49.662;8.408;2022-12-24T11:18:59;100681.75;;;13.65;71.27
69173;BME280;56280;49.662;8.408;2022-12-24T11:21:31;100682.88;;;13.72;71.75
69173;BME280;56280;49.662;8.408;2022-12-24T11:23:59;100670.66;;;13.60;71.43
69173;BME280;56280;49.662;8.408;2022-12-24T11:26:29;100681.59;;;13.86;71.42
69173;BME280;56280;49.662;8.408;2022-12-24T11:29:12;100677.97;;;13.77;71.36
69173;BME280;56280;49.662;8.408;2022-12-24T11:31:39;100673.47;;;13.78;71.87
69173;BME280;56280;49.662;8.408;2022-12-24T11:34:26;100674.31;;;13.68;71.11
69173;BME280;56280;49.662;8.408;2022-12-24T11:36:53;100675.16;;;13.49;72.29
69173;BME280;56280;49.662;8.408;2022-12-24T11:39:22;100621.00;;;13.18;72.75
69173;BME280;56280;49.662;8.408;2022-12-24T11:41:48;100663.50;;;13.70;72.41
69173;BME280;56280;49.662;8.408;2022-12-24T11:44:23;100678.09;;;13.46;74.25
69173;BME280;56280;49.662;8.408;2022-12-24T11:46:48;100661.75;;;13.30;76.31
69173;BME280;56280;49.662;8.408;2022-12-24T11:49:23;100661.28;;;13.25;76.05
69173;BME280;56280;49.662;8.408;2022-12-24T11:55:01;100661.97;;;13.07;76.78
69173;BME280;56280;49.662;8.408;2022-12-24T11:57:36;100666.50;;;13.26;78.74
69173;BME280;56280;49.662;8.408;2022-12-24T12:00:02;100659.41;;;13.46;78.60
69173;BME280;56280;49.662;8.408;2022-12-24T12:02:33;100664.75;;;13.85;78.63
69173;BME280;56280;49.662;8.408;2022-12-24T12:05:11;100656.75;;;13.85;77.99
69173;BME280;56280;49.662;8.408;2022-12-24T12:07:38;100635.50;;;13.84;77.24
69173;BME280;56280;49.662;8.408;2022-12-24T12:10:23;100667.25;;;14.07;77.09
69173;BME280;56280;49.662;8.408;2022-12-24T12:13:04;100646.16;;;14.03;78.64
69173;BME280;56280;49.662;8.408;2022-12-24T12:15:36;100665.69;;;14.23;78.67
69173;BME280;56280;49.662;8.408;2022-12-24T12:18:23;100667.91;;;14.38;78.33
69173;BME280;56280;49.662;8.408;2022-12-24T12:20:53;100655.41;;;14.29;77.41
69173;BME280;56280;49.662;8.408;2022-12-24T12:23:30;100672.06;;;14.03;78.10
69173;BME280;56280;49.662;8.408;2022-12-24T12:26:09;100667.28;;;13.97;77.34
69173;BME280;56280;49.662;8.408;2022-12-24T12:28:43;100668.53;;;14.12;79.66
69173;BME280;56280;49.662;8.408;2022-12-24T12:33:56;100639.88;;;13.95;79.48
69173;BME280;56280;49.662;8.408;2022-12-24T12:36:33;100667.41;;;14.05;80.22
69173;BME280;56280;49.662;8.408;2022-12-24T12:39:00;100668.97;;;13.88;79.76
69173;BME280;56280;49.662;8.408;2022-12-24T12:41:32;100675.00;;;13.90;80.14
69173;BME280;56280;49.662;8.408;2022-12-24T12:46:51;100687.38;;;14.01;81.72
69173;BME280;56280;49.662;8.408;2022-12-24T12:49:36;100678.50;;;14.10;81.07
69173;BME280;56280;49.662;8.408;2022-12-24T12:55:15;100681.31;;;14.09;80.42
69173;BME280;56280;49.662;8.408;2022-12-24T12:57:43;100657.72;;;13.84;80.20
69173;BME280;56280;49.662;8.408;2022-12-24T13:00:14;100671.63;;;13.98;80.57
69173;BME280;56280;49.662;8.408;2022-12-24T13:17:18;100698.97;;;13.31;80.62
69173;BME280;56280;49.662;8.408;2022-12-24T13:19:57;100691.78;;;13.22;81.34
69173;BME280;56280;49.662;8.408;2022-12-24T13:22:26;100682.34;;;13.18;82.36
69173;BME280;56280;49.662;8.408;2022-12-24T13:24:53;100670.94;;;12.97;81.51
69173;BME280;56280;49.662;8.408;2022-12-24T13:27:30;100676.75;;;13.31;82.29
69173;BME280;56280;49.662;8.408;2022-12-24T13:30:00;100693.97;;;13.48;81.42
69173;BME280;56280;49.662;8.408;2022-12-24T13:34:56;100693.53;;;13.33;80.71
69173;BME280;56280;49.662;8.408;2022-12-24T13:53:17;100694.56;;;13.11;81.34
69173;BME280;56280;49.662;8.408;2022-12-24T13:55:54;100682.88;;;13.12;81.98
69173;BME280;56280;49.662;8.408;2022-12-24T13:58:20;100693.31;;;13.25;81.12
69173;BME280;56280;49.662;8.408;2022-12-24T14:00:53;100703.81;;;13.17;80.73
69173;BME280;56280;49.662;8.408;2022-12-24T14:03:24;100699.41;;;12.96;80.93
69173;BME280;56280;49.662;8.408;2022-12-24T14:05:54;100696.88;;;12.94;81.84
69173;BME280;56280;49.662;8.408;2022-12-24T14:16:10;100724.75;;;12.81;83.65
69173;BME280;56280;49.662;8.408;2022-12-24T14:18:38;100720.19;;;12.71;83.41
69173;BME280;56280;49.662;8.408;2022-12-24T14:21:05;100715.13;;;12.68;84.76
69173;BME280;56280;49.662;8.408;2022-12-24T14:23:53;100729.59;;;12.66;85.04